ΕΜΥ, Εθνική Μετεωρολογική Υπηρεσία - Δελτία Καιρού, Προγνώσεις

ΑΕΡΟΝΑΥΤΙΛΙΑ

GREEK AIRPORTS CODES

TAF LGIR 212300Z 2200/2224 16010KT 9999 FEW020 SCT070 TEMPO 2200/2209 FEW018TCU BKN070 TEMPO 2209/2218 17015G25KT TEMPO 2218/2224 17020G30KT=

EUROPEAN AIRPORTS CODES